sensor_id;sensor_type;location;lat;lon;timestamp;P1;durP1;ratioP1;P2;durP2;ratioP2
2972;SDS011;1496;51.404;7.232;2023-02-13T00:00:12;46.50;;;18.33;;
2972;SDS011;1496;51.404;7.232;2023-02-13T00:02:42;51.53;;;20.23;;
2972;SDS011;1496;51.404;7.232;2023-02-13T00:05:09;51.20;;;21.03;;
2972;SDS011;1496;51.404;7.232;2023-02-13T00:07:36;47.87;;;19.87;;
2972;SDS011;1496;51.404;7.232;2023-02-13T00:10:02;50.73;;;20.13;;
2972;SDS011;1496;51.404;7.232;2023-02-13T00:12:29;51.10;;;19.47;;
2972;SDS011;1496;51.404;7.232;2023-02-13T00:14:56;48.67;;;19.00;;
2972;SDS011;1496;51.404;7.232;2023-02-13T00:17:23;42.27;;;16.73;;
2972;SDS011;1496;51.404;7.232;2023-02-13T00:19:50;47.87;;;17.90;;
2972;SDS011;1496;51.404;7.232;2023-02-13T00:22:18;42.50;;;15.17;;
2972;SDS011;1496;51.404;7.232;2023-02-13T00:24:46;55.60;;;16.13;;
2972;SDS011;1496;51.404;7.232;2023-02-13T00:27:12;43.13;;;14.47;;
2972;SDS011;1496;51.404;7.232;2023-02-13T00:29:38;44.20;;;13.93;;
2972;SDS011;1496;51.404;7.232;2023-02-13T00:32:05;40.90;;;13.63;;
2972;SDS011;1496;51.404;7.232;2023-02-13T00:34:33;40.60;;;13.47;;
2972;SDS011;1496;51.404;7.232;2023-02-13T00:37:02;38.17;;;12.97;;
2972;SDS011;1496;51.404;7.232;2023-02-13T00:39:28;40.40;;;14.80;;
2972;SDS011;1496;51.404;7.232;2023-02-13T00:41:56;36.10;;;11.80;;
2972;SDS011;1496;51.404;7.232;2023-02-13T00:44:22;39.57;;;12.43;;
2972;SDS011;1496;51.404;7.232;2023-02-13T00:46:48;39.70;;;10.00;;
2972;SDS011;1496;51.404;7.232;2023-02-13T00:49:16;32.67;;;9.20;;
2972;SDS011;1496;51.404;7.232;2023-02-13T00:51:42;35.73;;;9.40;;
2972;SDS011;1496;51.404;7.232;2023-02-13T00:54:08;33.20;;;9.43;;
2972;SDS011;1496;51.404;7.232;2023-02-13T00:56:35;37.07;;;9.73;;
2972;SDS011;1496;51.404;7.232;2023-02-13T00:59:04;32.93;;;7.80;;
2972;SDS011;1496;51.404;7.232;2023-02-13T01:01:30;31.70;;;8.60;;
2972;SDS011;1496;51.404;7.232;2023-02-13T01:03:58;29.60;;;7.83;;
2972;SDS011;1496;51.404;7.232;2023-02-13T01:06:26;28.23;;;8.10;;
2972;SDS011;1496;51.404;7.232;2023-02-13T01:08:52;26.93;;;7.80;;
2972;SDS011;1496;51.404;7.232;2023-02-13T01:11:19;30.30;;;7.40;;
2972;SDS011;1496;51.404;7.232;2023-02-13T01:13:45;28.30;;;7.77;;
2972;SDS011;1496;51.404;7.232;2023-02-13T01:16:11;26.17;;;7.40;;
2972;SDS011;1496;51.404;7.232;2023-02-13T01:18:41;25.77;;;7.47;;
2972;SDS011;1496;51.404;7.232;2023-02-13T01:21:12;26.03;;;6.90;;
2972;SDS011;1496;51.404;7.232;2023-02-13T01:23:41;26.57;;;7.20;;
2972;SDS011;1496;51.404;7.232;2023-02-13T01:26:07;28.23;;;6.80;;
2972;SDS011;1496;51.404;7.232;2023-02-13T01:28:41;26.43;;;6.90;;
2972;SDS011;1496;51.404;7.232;2023-02-13T01:31:09;28.70;;;7.70;;
2972;SDS011;1496;51.404;7.232;2023-02-13T01:33:37;28.87;;;7.80;;
2972;SDS011;1496;51.404;7.232;2023-02-13T01:36:07;26.80;;;7.30;;
2972;SDS011;1496;51.404;7.232;2023-02-13T01:38:36;28.07;;;7.50;;
2972;SDS011;1496;51.404;7.232;2023-02-13T01:41:03;29.83;;;6.17;;
2972;SDS011;1496;51.404;7.232;2023-02-13T01:46:23;27.27;;;6.70;;
2972;SDS011;1496;51.404;7.232;2023-02-13T01:48:54;27.23;;;7.27;;
2972;SDS011;1496;51.404;7.232;2023-02-13T01:51:26;27.63;;;7.00;;
2972;SDS011;1496;51.404;7.232;2023-02-13T01:54:00;27.63;;;6.47;;
2972;SDS011;1496;51.404;7.232;2023-02-13T01:59:03;29.70;;;6.53;;
2972;SDS011;1496;51.404;7.232;2023-02-13T02:01:33;27.10;;;6.97;;
2972;SDS011;1496;51.404;7.232;2023-02-13T02:04:01;28.90;;;6.73;;
2972;SDS011;1496;51.404;7.232;2023-02-13T02:06:41;31.50;;;7.70;;
2972;SDS011;1496;51.404;7.232;2023-02-13T02:09:19;29.60;;;6.97;;
2972;SDS011;1496;51.404;7.232;2023-02-13T02:11:53;27.73;;;6.97;;
2972;SDS011;1496;51.404;7.232;2023-02-13T02:14:36;27.17;;;7.17;;
2972;SDS011;1496;51.404;7.232;2023-02-13T02:17:07;26.70;;;6.47;;
2972;SDS011;1496;51.404;7.232;2023-02-13T02:22:37;26.93;;;6.33;;
2972;SDS011;1496;51.404;7.232;2023-02-13T02:36:20;25.40;;;6.03;;
2972;SDS011;1496;51.404;7.232;2023-02-13T02:44:16;23.33;;;5.57;;
2972;SDS011;1496;51.404;7.232;2023-02-13T02:50:22;25.30;;;5.93;;
2972;SDS011;1496;51.404;7.232;2023-02-13T02:58:20;23.17;;;5.67;;
2972;SDS011;1496;51.404;7.232;2023-02-13T03:01:15;23.47;;;5.60;;
2972;SDS011;1496;51.404;7.232;2023-02-13T03:04:05;27.33;;;4.87;;
2972;SDS011;1496;51.404;7.232;2023-02-13T03:07:03;23.53;;;4.67;;
2972;SDS011;1496;51.404;7.232;2023-02-13T03:09:40;26.93;;;7.20;;
2972;SDS011;1496;51.404;7.232;2023-02-13T03:12:30;22.67;;;5.17;;
2972;SDS011;1496;51.404;7.232;2023-02-13T03:15:21;23.23;;;4.60;;
2972;SDS011;1496;51.404;7.232;2023-02-13T03:17:50;21.83;;;4.80;;
2972;SDS011;1496;51.404;7.232;2023-02-13T03:20:51;20.17;;;5.07;;
2972;SDS011;1496;51.404;7.232;2023-02-13T03:23:56;20.60;;;4.43;;
2972;SDS011;1496;51.404;7.232;2023-02-13T03:26:36;22.50;;;4.80;;
2972;SDS011;1496;51.404;7.232;2023-02-13T03:29:36;20.63;;;4.73;;
2972;SDS011;1496;51.404;7.232;2023-02-13T03:32:43;19.07;;;4.47;;
2972;SDS011;1496;51.404;7.232;2023-02-13T03:41:04;20.27;;;5.20;;
2972;SDS011;1496;51.404;7.232;2023-02-13T03:46:15;18.23;;;4.40;;
2972;SDS011;1496;51.404;7.232;2023-02-13T03:48:43;22.40;;;5.87;;
2972;SDS011;1496;51.404;7.232;2023-02-13T03:51:37;18.77;;;4.07;;
2972;SDS011;1496;51.404;7.232;2023-02-13T03:54:15;17.90;;;3.97;;
2972;SDS011;1496;51.404;7.232;2023-02-13T03:57:17;19.00;;;4.50;;
2972;SDS011;1496;51.404;7.232;2023-02-13T04:00:06;24.53;;;5.00;;
2972;SDS011;1496;51.404;7.232;2023-02-13T04:02:58;21.70;;;5.27;;
2972;SDS011;1496;51.404;7.232;2023-02-13T04:05:39;21.13;;;4.77;;
2972;SDS011;1496;51.404;7.232;2023-02-13T04:08:15;21.80;;;4.57;;
2972;SDS011;1496;51.404;7.232;2023-02-13T04:10:46;19.37;;;5.20;;
2972;SDS011;1496;51.404;7.232;2023-02-13T04:13:51;20.93;;;5.30;;
2972;SDS011;1496;51.404;7.232;2023-02-13T04:16:36;21.20;;;5.33;;
2972;SDS011;1496;51.404;7.232;2023-02-13T04:19:17;20.27;;;4.97;;
2972;SDS011;1496;51.404;7.232;2023-02-13T04:21:48;21.43;;;5.10;;
2972;SDS011;1496;51.404;7.232;2023-02-13T04:24:21;23.40;;;6.20;;
2972;SDS011;1496;51.404;7.232;2023-02-13T04:26:48;20.70;;;5.37;;
2972;SDS011;1496;51.404;7.232;2023-02-13T04:29:16;21.13;;;5.67;;
2972;SDS011;1496;51.404;7.232;2023-02-13T04:31:42;19.40;;;5.83;;
2972;SDS011;1496;51.404;7.232;2023-02-13T04:34:09;18.47;;;4.90;;
2972;SDS011;1496;51.404;7.232;2023-02-13T04:36:36;16.37;;;5.30;;
2972;SDS011;1496;51.404;7.232;2023-02-13T04:39:03;18.90;;;6.50;;
2972;SDS011;1496;51.404;7.232;2023-02-13T04:41:30;18.20;;;6.50;;
2972;SDS011;1496;51.404;7.232;2023-02-13T04:43:58;21.23;;;6.30;;
2972;SDS011;1496;51.404;7.232;2023-02-13T04:46:24;18.47;;;6.40;;
2972;SDS011;1496;51.404;7.232;2023-02-13T04:48:52;21.63;;;7.30;;
2972;SDS011;1496;51.404;7.232;2023-02-13T04:51:18;23.17;;;7.13;;
2972;SDS011;1496;51.404;7.232;2023-02-13T04:53:45;20.80;;;6.90;;
2972;SDS011;1496;51.404;7.232;2023-02-13T04:56:11;20.10;;;6.07;;
2972;SDS011;1496;51.404;7.232;2023-02-13T04:58:37;22.40;;;8.87;;
2972;SDS011;1496;51.404;7.232;2023-02-13T05:01:13;19.93;;;7.40;;
2972;SDS011;1496;51.404;7.232;2023-02-13T05:03:41;27.67;;;8.23;;
2972;SDS011;1496;51.404;7.232;2023-02-13T05:06:08;21.50;;;7.00;;
2972;SDS011;1496;51.404;7.232;2023-02-13T05:08:36;19.53;;;8.50;;
2972;SDS011;1496;51.404;7.232;2023-02-13T05:11:02;19.17;;;9.00;;
2972;SDS011;1496;51.404;7.232;2023-02-13T05:13:29;20.70;;;8.70;;
2972;SDS011;1496;51.404;7.232;2023-02-13T05:15:58;17.57;;;6.83;;
2972;SDS011;1496;51.404;7.232;2023-02-13T05:18:26;17.67;;;7.67;;
2972;SDS011;1496;51.404;7.232;2023-02-13T05:20:55;19.97;;;7.67;;
2972;SDS011;1496;51.404;7.232;2023-02-13T05:23:42;19.90;;;7.47;;
2972;SDS011;1496;51.404;7.232;2023-02-13T05:26:09;20.67;;;7.97;;
2972;SDS011;1496;51.404;7.232;2023-02-13T05:28:35;20.20;;;8.37;;
2972;SDS011;1496;51.404;7.232;2023-02-13T05:31:20;19.47;;;7.53;;
2972;SDS011;1496;51.404;7.232;2023-02-13T05:33:46;19.23;;;7.17;;
2972;SDS011;1496;51.404;7.232;2023-02-13T05:36:13;19.70;;;6.80;;
2972;SDS011;1496;51.404;7.232;2023-02-13T05:38:39;20.30;;;8.77;;
2972;SDS011;1496;51.404;7.232;2023-02-13T05:41:07;18.53;;;7.60;;
2972;SDS011;1496;51.404;7.232;2023-02-13T05:43:37;19.73;;;8.20;;
2972;SDS011;1496;51.404;7.232;2023-02-13T05:46:05;19.70;;;7.80;;
2972;SDS011;1496;51.404;7.232;2023-02-13T05:48:33;19.83;;;7.33;;
2972;SDS011;1496;51.404;7.232;2023-02-13T05:50:59;22.87;;;8.83;;
2972;SDS011;1496;51.404;7.232;2023-02-13T05:53:26;20.23;;;7.70;;
2972;SDS011;1496;51.404;7.232;2023-02-13T05:55:54;24.60;;;7.77;;
2972;SDS011;1496;51.404;7.232;2023-02-13T05:58:21;29.80;;;7.93;;
2972;SDS011;1496;51.404;7.232;2023-02-13T06:00:48;24.07;;;7.60;;
2972;SDS011;1496;51.404;7.232;2023-02-13T06:03:15;25.00;;;7.80;;
2972;SDS011;1496;51.404;7.232;2023-02-13T06:05:45;23.40;;;7.60;;
2972;SDS011;1496;51.404;7.232;2023-02-13T06:08:13;23.90;;;8.10;;
2972;SDS011;1496;51.404;7.232;2023-02-13T06:10:39;24.83;;;8.07;;
2972;SDS011;1496;51.404;7.232;2023-02-13T06:13:06;25.23;;;8.40;;
2972;SDS011;1496;51.404;7.232;2023-02-13T06:15:33;28.67;;;8.60;;
2972;SDS011;1496;51.404;7.232;2023-02-13T06:18:00;28.27;;;9.30;;
2972;SDS011;1496;51.404;7.232;2023-02-13T06:20:26;25.30;;;8.20;;
2972;SDS011;1496;51.404;7.232;2023-02-13T06:22:53;24.57;;;7.70;;
2972;SDS011;1496;51.404;7.232;2023-02-13T06:25:21;23.80;;;7.93;;
2972;SDS011;1496;51.404;7.232;2023-02-13T06:27:49;25.87;;;8.60;;
2972;SDS011;1496;51.404;7.232;2023-02-13T06:30:17;25.40;;;8.03;;
2972;SDS011;1496;51.404;7.232;2023-02-13T06:32:45;26.50;;;8.30;;
2972;SDS011;1496;51.404;7.232;2023-02-13T06:35:12;27.83;;;8.80;;
2972;SDS011;1496;51.404;7.232;2023-02-13T06:37:40;26.17;;;8.13;;
2972;SDS011;1496;51.404;7.232;2023-02-13T06:40:10;24.70;;;8.63;;
2972;SDS011;1496;51.404;7.232;2023-02-13T06:42:38;25.73;;;8.03;;
2972;SDS011;1496;51.404;7.232;2023-02-13T06:45:06;26.87;;;9.73;;
2972;SDS011;1496;51.404;7.232;2023-02-13T06:47:34;26.83;;;9.37;;
2972;SDS011;1496;51.404;7.232;2023-02-13T06:50:00;28.77;;;9.43;;
2972;SDS011;1496;51.404;7.232;2023-02-13T06:52:27;25.47;;;8.73;;
2972;SDS011;1496;51.404;7.232;2023-02-13T06:54:54;27.83;;;9.63;;
2972;SDS011;1496;51.404;7.232;2023-02-13T06:57:22;25.23;;;8.27;;
2972;SDS011;1496;51.404;7.232;2023-02-13T06:59:48;28.53;;;9.70;;
2972;SDS011;1496;51.404;7.232;2023-02-13T07:02:16;25.83;;;9.10;;
2972;SDS011;1496;51.404;7.232;2023-02-13T07:04:42;26.70;;;8.73;;
2972;SDS011;1496;51.404;7.232;2023-02-13T07:07:08;28.00;;;8.90;;
2972;SDS011;1496;51.404;7.232;2023-02-13T07:09:35;27.00;;;8.53;;
2972;SDS011;1496;51.404;7.232;2023-02-13T07:12:02;28.10;;;8.53;;
2972;SDS011;1496;51.404;7.232;2023-02-13T07:14:30;26.90;;;9.57;;
2972;SDS011;1496;51.404;7.232;2023-02-13T07:16:57;29.47;;;9.10;;
2972;SDS011;1496;51.404;7.232;2023-02-13T07:19:24;24.60;;;7.03;;
2972;SDS011;1496;51.404;7.232;2023-02-13T07:21:50;26.10;;;8.90;;
2972;SDS011;1496;51.404;7.232;2023-02-13T07:24:17;24.40;;;8.73;;
2972;SDS011;1496;51.404;7.232;2023-02-13T07:26:44;25.70;;;8.23;;
2972;SDS011;1496;51.404;7.232;2023-02-13T07:29:11;25.70;;;8.40;;
2972;SDS011;1496;51.404;7.232;2023-02-13T07:31:38;24.73;;;8.90;;
2972;SDS011;1496;51.404;7.232;2023-02-13T07:34:06;27.80;;;9.53;;
2972;SDS011;1496;51.404;7.232;2023-02-13T07:36:34;23.43;;;7.93;;
2972;SDS011;1496;51.404;7.232;2023-02-13T07:38:59;24.43;;;9.30;;
2972;SDS011;1496;51.404;7.232;2023-02-13T07:41:25;22.00;;;7.87;;
2972;SDS011;1496;51.404;7.232;2023-02-13T07:43:53;23.83;;;8.77;;
2972;SDS011;1496;51.404;7.232;2023-02-13T07:46:19;23.10;;;9.73;;
2972;SDS011;1496;51.404;7.232;2023-02-13T07:48:47;29.43;;;9.83;;
2972;SDS011;1496;51.404;7.232;2023-02-13T07:51:16;24.83;;;8.70;;
2972;SDS011;1496;51.404;7.232;2023-02-13T07:53:48;24.97;;;9.27;;
2972;SDS011;1496;51.404;7.232;2023-02-13T07:56:17;25.70;;;8.67;;
2972;SDS011;1496;51.404;7.232;2023-02-13T07:58:45;26.57;;;9.03;;
2972;SDS011;1496;51.404;7.232;2023-02-13T08:01:13;24.77;;;8.60;;
2972;SDS011;1496;51.404;7.232;2023-02-13T08:03:48;26.83;;;8.43;;
2972;SDS011;1496;51.404;7.232;2023-02-13T08:06:16;28.83;;;9.30;;
2972;SDS011;1496;51.404;7.232;2023-02-13T08:08:44;28.97;;;9.10;;
2972;SDS011;1496;51.404;7.232;2023-02-13T08:11:27;29.60;;;9.07;;
2972;SDS011;1496;51.404;7.232;2023-02-13T08:14:18;29.73;;;8.60;;
2972;SDS011;1496;51.404;7.232;2023-02-13T08:16:51;27.67;;;8.80;;
2972;SDS011;1496;51.404;7.232;2023-02-13T08:19:20;28.67;;;8.87;;
2972;SDS011;1496;51.404;7.232;2023-02-13T08:21:46;31.30;;;9.37;;
2972;SDS011;1496;51.404;7.232;2023-02-13T08:24:13;30.60;;;8.80;;
2972;SDS011;1496;51.404;7.232;2023-02-13T08:26:40;28.00;;;8.40;;
2972;SDS011;1496;51.404;7.232;2023-02-13T08:29:08;28.13;;;9.20;;
2972;SDS011;1496;51.404;7.232;2023-02-13T08:31:35;28.20;;;8.73;;
2972;SDS011;1496;51.404;7.232;2023-02-13T08:34:03;29.87;;;9.30;;
2972;SDS011;1496;51.404;7.232;2023-02-13T08:36:30;26.37;;;8.27;;
2972;SDS011;1496;51.404;7.232;2023-02-13T08:38:57;30.40;;;9.20;;
2972;SDS011;1496;51.404;7.232;2023-02-13T08:41:26;28.63;;;9.37;;
2972;SDS011;1496;51.404;7.232;2023-02-13T08:43:56;26.67;;;8.10;;
2972;SDS011;1496;51.404;7.232;2023-02-13T08:46:23;25.57;;;7.37;;
2972;SDS011;1496;51.404;7.232;2023-02-13T08:48:50;30.90;;;9.60;;
2972;SDS011;1496;51.404;7.232;2023-02-13T08:51:17;27.20;;;9.00;;
2972;SDS011;1496;51.404;7.232;2023-02-13T08:53:46;32.00;;;8.13;;
2972;SDS011;1496;51.404;7.232;2023-02-13T08:56:14;29.03;;;8.73;;
2972;SDS011;1496;51.404;7.232;2023-02-13T08:58:41;31.70;;;8.93;;
2972;SDS011;1496;51.404;7.232;2023-02-13T09:01:09;30.27;;;7.90;;
2972;SDS011;1496;51.404;7.232;2023-02-13T09:07:22;30.57;;;8.47;;
2972;SDS011;1496;51.404;7.232;2023-02-13T09:09:50;33.17;;;9.07;;
2972;SDS011;1496;51.404;7.232;2023-02-13T09:12:17;31.70;;;8.30;;
2972;SDS011;1496;51.404;7.232;2023-02-13T09:14:43;33.67;;;9.07;;
2972;SDS011;1496;51.404;7.232;2023-02-13T09:17:12;32.63;;;8.57;;
2972;SDS011;1496;51.404;7.232;2023-02-13T09:19:42;33.20;;;9.00;;
2972;SDS011;1496;51.404;7.232;2023-02-13T09:22:10;32.40;;;7.30;;
2972;SDS011;1496;51.404;7.232;2023-02-13T09:24:37;32.90;;;7.93;;
2972;SDS011;1496;51.404;7.232;2023-02-13T09:27:04;31.50;;;7.47;;
2972;SDS011;1496;51.404;7.232;2023-02-13T09:29:33;36.77;;;7.67;;
2972;SDS011;1496;51.404;7.232;2023-02-13T09:31:59;33.70;;;7.37;;
2972;SDS011;1496;51.404;7.232;2023-02-13T09:34:26;34.83;;;7.97;;
2972;SDS011;1496;51.404;7.232;2023-02-13T09:36:54;35.20;;;7.90;;
2972;SDS011;1496;51.404;7.232;2023-02-13T09:39:20;32.47;;;6.93;;
2972;SDS011;1496;51.404;7.232;2023-02-13T09:41:48;35.40;;;7.87;;
2972;SDS011;1496;51.404;7.232;2023-02-13T09:44:35;34.03;;;7.30;;
2972;SDS011;1496;51.404;7.232;2023-02-13T09:47:13;36.53;;;7.53;;
2972;SDS011;1496;51.404;7.232;2023-02-13T09:50:00;33.30;;;7.70;;
2972;SDS011;1496;51.404;7.232;2023-02-13T09:52:31;32.63;;;6.90;;
2972;SDS011;1496;51.404;7.232;2023-02-13T09:55:01;33.50;;;8.00;;
2972;SDS011;1496;51.404;7.232;2023-02-13T09:57:35;31.67;;;7.97;;
2972;SDS011;1496;51.404;7.232;2023-02-13T10:00:12;30.00;;;7.50;;
2972;SDS011;1496;51.404;7.232;2023-02-13T10:05:55;30.30;;;6.97;;
2972;SDS011;1496;51.404;7.232;2023-02-13T10:08:53;32.13;;;7.30;;
2972;SDS011;1496;51.404;7.232;2023-02-13T10:11:35;31.00;;;5.90;;
2972;SDS011;1496;51.404;7.232;2023-02-13T10:16:51;27.33;;;6.73;;
2972;SDS011;1496;51.404;7.232;2023-02-13T10:22:12;20.00;;;6.63;;
2972;SDS011;1496;51.404;7.232;2023-02-13T10:27:43;20.20;;;6.63;;
2972;SDS011;1496;51.404;7.232;2023-02-13T10:30:32;18.67;;;6.77;;
2972;SDS011;1496;51.404;7.232;2023-02-13T10:35:52;18.90;;;7.40;;
2972;SDS011;1496;51.404;7.232;2023-02-13T10:38:38;19.77;;;7.80;;
2972;SDS011;1496;51.404;7.232;2023-02-13T10:52:06;19.53;;;7.10;;
2972;SDS011;1496;51.404;7.232;2023-02-13T11:00:08;13.80;;;7.13;;
2972;SDS011;1496;51.404;7.232;2023-02-13T11:02:57;13.80;;;6.60;;
2972;SDS011;1496;51.404;7.232;2023-02-13T11:05:37;15.33;;;6.80;;
2972;SDS011;1496;51.404;7.232;2023-02-13T11:08:39;13.53;;;7.07;;
2972;SDS011;1496;51.404;7.232;2023-02-13T11:10:59;12.10;;;6.20;;
2972;SDS011;1496;51.404;7.232;2023-02-13T11:13:26;10.93;;;5.77;;
2972;SDS011;1496;51.404;7.232;2023-02-13T11:15:56;12.60;;;6.97;;
2972;SDS011;1496;51.404;7.232;2023-02-13T11:18:41;10.13;;;6.20;;
2972;SDS011;1496;51.404;7.232;2023-02-13T11:21:21;14.87;;;7.80;;
2972;SDS011;1496;51.404;7.232;2023-02-13T11:23:59;9.97;;;7.00;;
2972;SDS011;1496;51.404;7.232;2023-02-13T11:26:31;8.37;;;6.20;;
2972;SDS011;1496;51.404;7.232;2023-02-13T11:29:05;9.87;;;7.10;;
2972;SDS011;1496;51.404;7.232;2023-02-13T11:31:43;8.70;;;6.60;;
2972;SDS011;1496;51.404;7.232;2023-02-13T11:36:54;9.77;;;6.93;;
2972;SDS011;1496;51.404;7.232;2023-02-13T11:39:40;8.30;;;6.63;;
2972;SDS011;1496;51.404;7.232;2023-02-13T11:45:04;9.77;;;6.33;;
2972;SDS011;1496;51.404;7.232;2023-02-13T11:47:45;10.67;;;6.07;;
2972;SDS011;1496;51.404;7.232;2023-02-13T11:52:59;9.03;;;6.37;;
2972;SDS011;1496;51.404;7.232;2023-02-13T11:55:32;8.10;;;6.30;;
2972;SDS011;1496;51.404;7.232;2023-02-13T12:00:36;9.23;;;6.33;;
2972;SDS011;1496;51.404;7.232;2023-02-13T12:03:25;8.50;;;6.10;;
2972;SDS011;1496;51.404;7.232;2023-02-13T12:05:59;8.63;;;5.90;;
2972;SDS011;1496;51.404;7.232;2023-02-13T12:08:36;10.33;;;6.67;;
2972;SDS011;1496;51.404;7.232;2023-02-13T12:11:09;10.07;;;6.20;;
2972;SDS011;1496;51.404;7.232;2023-02-13T12:13:48;9.87;;;6.03;;
2972;SDS011;1496;51.404;7.232;2023-02-13T12:16:30;8.40;;;6.50;;
2972;SDS011;1496;51.404;7.232;2023-02-13T12:19:04;12.20;;;5.80;;
2972;SDS011;1496;51.404;7.232;2023-02-13T12:21:40;11.10;;;7.17;;
2972;SDS011;1496;51.404;7.232;2023-02-13T12:24:17;9.47;;;6.30;;
2972;SDS011;1496;51.404;7.232;2023-02-13T12:29:46;10.80;;;6.30;;
2972;SDS011;1496;51.404;7.232;2023-02-13T12:32:39;14.00;;;6.23;;
2972;SDS011;1496;51.404;7.232;2023-02-13T12:46:02;9.10;;;6.03;;
2972;SDS011;1496;51.404;7.232;2023-02-13T12:48:59;11.10;;;6.50;;
2972;SDS011;1496;51.404;7.232;2023-02-13T12:52:03;12.90;;;6.10;;
2972;SDS011;1496;51.404;7.232;2023-02-13T12:57:23;12.23;;;6.07;;
2972;SDS011;1496;51.404;7.232;2023-02-13T13:03:10;8.63;;;5.40;;
2972;SDS011;1496;51.404;7.232;2023-02-13T13:06:01;10.57;;;6.67;;
2972;SDS011;1496;51.404;7.232;2023-02-13T13:14:38;8.07;;;5.20;;
2972;SDS011;1496;51.404;7.232;2023-02-13T13:20:07;10.23;;;6.23;;
2972;SDS011;1496;51.404;7.232;2023-02-13T13:28:54;7.77;;;4.80;;
2972;SDS011;1496;51.404;7.232;2023-02-13T13:31:08;6.17;;;3.73;;
2972;SDS011;1496;51.404;7.232;2023-02-13T13:33:38;7.63;;;5.00;;
2972;SDS011;1496;51.404;7.232;2023-02-13T13:38:53;6.03;;;4.80;;
2972;SDS011;1496;51.404;7.232;2023-02-13T13:41:34;9.33;;;5.27;;
2972;SDS011;1496;51.404;7.232;2023-02-13T13:49:36;6.10;;;4.33;;
2972;SDS011;1496;51.404;7.232;2023-02-13T13:52:22;6.20;;;4.90;;
2972;SDS011;1496;51.404;7.232;2023-02-13T13:54:53;6.13;;;4.13;;
2972;SDS011;1496;51.404;7.232;2023-02-13T13:57:25;11.73;;;4.80;;
2972;SDS011;1496;51.404;7.232;2023-02-13T14:00:24;7.80;;;4.53;;
2972;SDS011;1496;51.404;7.232;2023-02-13T14:06:07;8.00;;;4.60;;
2972;SDS011;1496;51.404;7.232;2023-02-13T14:14:42;6.83;;;4.70;;
2972;SDS011;1496;51.404;7.232;2023-02-13T14:16:52;8.80;;;4.40;;
2972;SDS011;1496;51.404;7.232;2023-02-13T14:19:29;8.43;;;4.73;;
2972;SDS011;1496;51.404;7.232;2023-02-13T14:24:51;9.20;;;4.77;;
2972;SDS011;1496;51.404;7.232;2023-02-13T14:27:25;6.83;;;4.90;;
2972;SDS011;1496;51.404;7.232;2023-02-13T14:29:57;9.90;;;4.87;;
2972;SDS011;1496;51.404;7.232;2023-02-13T14:32:35;7.23;;;4.43;;
2972;SDS011;1496;51.404;7.232;2023-02-13T14:37:59;8.53;;;5.10;;
2972;SDS011;1496;51.404;7.232;2023-02-13T14:49:15;6.57;;;4.60;;
2972;SDS011;1496;51.404;7.232;2023-02-13T14:51:55;7.20;;;5.47;;
2972;SDS011;1496;51.404;7.232;2023-02-13T14:54:58;8.40;;;5.23;;
2972;SDS011;1496;51.404;7.232;2023-02-13T14:57:20;10.50;;;5.63;;
2972;SDS011;1496;51.404;7.232;2023-02-13T14:59:53;6.93;;;5.17;;
2972;SDS011;1496;51.404;7.232;2023-02-13T15:02:30;6.67;;;4.70;;
2972;SDS011;1496;51.404;7.232;2023-02-13T15:05:01;6.77;;;4.93;;
2972;SDS011;1496;51.404;7.232;2023-02-13T15:07:36;7.47;;;5.23;;
2972;SDS011;1496;51.404;7.232;2023-02-13T15:15:51;8.17;;;4.90;;
2972;SDS011;1496;51.404;7.232;2023-02-13T15:18:25;11.20;;;5.53;;
2972;SDS011;1496;51.404;7.232;2023-02-13T15:20:57;7.20;;;4.93;;
2972;SDS011;1496;51.404;7.232;2023-02-13T15:23:30;8.13;;;5.40;;
2972;SDS011;1496;51.404;7.232;2023-02-13T15:26:06;9.17;;;5.37;;
2972;SDS011;1496;51.404;7.232;2023-02-13T15:28:33;12.13;;;6.23;;
2972;SDS011;1496;51.404;7.232;2023-02-13T15:31:03;7.90;;;5.20;;
2972;SDS011;1496;51.404;7.232;2023-02-13T15:33:34;10.50;;;4.87;;
2972;SDS011;1496;51.404;7.232;2023-02-13T15:36:12;7.90;;;4.53;;
2972;SDS011;1496;51.404;7.232;2023-02-13T15:38:47;11.60;;;6.30;;
2972;SDS011;1496;51.404;7.232;2023-02-13T15:41:23;8.67;;;5.10;;
2972;SDS011;1496;51.404;7.232;2023-02-13T15:43:56;10.10;;;6.17;;
2972;SDS011;1496;51.404;7.232;2023-02-13T15:48:56;8.20;;;5.80;;
2972;SDS011;1496;51.404;7.232;2023-02-13T15:51:24;7.90;;;6.23;;
2972;SDS011;1496;51.404;7.232;2023-02-13T15:53:55;7.67;;;5.27;;
2972;SDS011;1496;51.404;7.232;2023-02-13T15:56:25;6.90;;;5.40;;
2972;SDS011;1496;51.404;7.232;2023-02-13T15:58:54;9.50;;;5.37;;
2972;SDS011;1496;51.404;7.232;2023-02-13T16:01:23;10.43;;;5.60;;
2972;SDS011;1496;51.404;7.232;2023-02-13T16:03:51;9.10;;;5.67;;
2972;SDS011;1496;51.404;7.232;2023-02-13T16:06:23;8.60;;;4.97;;
2972;SDS011;1496;51.404;7.232;2023-02-13T16:08:50;8.70;;;5.50;;
2972;SDS011;1496;51.404;7.232;2023-02-13T16:14:20;8.70;;;5.07;;
2972;SDS011;1496;51.404;7.232;2023-02-13T16:17:35;6.30;;;5.30;;
2972;SDS011;1496;51.404;7.232;2023-02-13T16:22:27;6.80;;;5.00;;
2972;SDS011;1496;51.404;7.232;2023-02-13T16:25:17;7.43;;;5.17;;
2972;SDS011;1496;51.404;7.232;2023-02-13T16:27:52;8.33;;;5.70;;
2972;SDS011;1496;51.404;7.232;2023-02-13T16:30:35;6.30;;;5.33;;
2972;SDS011;1496;51.404;7.232;2023-02-13T16:35:44;9.10;;;5.70;;
2972;SDS011;1496;51.404;7.232;2023-02-13T16:38:32;9.07;;;5.77;;
2972;SDS011;1496;51.404;7.232;2023-02-13T16:43:47;11.90;;;8.57;;
2972;SDS011;1496;51.404;7.232;2023-02-13T16:49:13;10.17;;;6.00;;
2972;SDS011;1496;51.404;7.232;2023-02-13T17:02:18;8.50;;;5.23;;
2972;SDS011;1496;51.404;7.232;2023-02-13T17:04:48;8.17;;;5.50;;
2972;SDS011;1496;51.404;7.232;2023-02-13T17:07:34;7.63;;;5.30;;
2972;SDS011;1496;51.404;7.232;2023-02-13T17:12:59;9.77;;;6.40;;
2972;SDS011;1496;51.404;7.232;2023-02-13T17:15:29;10.83;;;6.00;;
2972;SDS011;1496;51.404;7.232;2023-02-13T17:17:56;8.50;;;6.53;;
2972;SDS011;1496;51.404;7.232;2023-02-13T17:20:25;9.63;;;5.63;;
2972;SDS011;1496;51.404;7.232;2023-02-13T17:22:53;8.13;;;5.47;;
2972;SDS011;1496;51.404;7.232;2023-02-13T17:27:56;9.70;;;6.70;;
2972;SDS011;1496;51.404;7.232;2023-02-13T17:30:25;14.10;;;6.77;;
2972;SDS011;1496;51.404;7.232;2023-02-13T17:33:03;19.80;;;8.43;;
2972;SDS011;1496;51.404;7.232;2023-02-13T17:35:32;8.03;;;6.23;;
2972;SDS011;1496;51.404;7.232;2023-02-13T17:37:59;11.07;;;6.97;;
2972;SDS011;1496;51.404;7.232;2023-02-13T17:40:26;10.60;;;6.30;;
2972;SDS011;1496;51.404;7.232;2023-02-13T17:42:55;13.87;;;7.00;;
2972;SDS011;1496;51.404;7.232;2023-02-13T17:45:23;21.60;;;7.53;;
2972;SDS011;1496;51.404;7.232;2023-02-13T17:47:53;10.13;;;6.20;;
2972;SDS011;1496;51.404;7.232;2023-02-13T17:50:23;11.50;;;6.90;;
2972;SDS011;1496;51.404;7.232;2023-02-13T17:52:51;12.50;;;7.80;;
2972;SDS011;1496;51.404;7.232;2023-02-13T17:55:24;9.93;;;7.40;;
2972;SDS011;1496;51.404;7.232;2023-02-13T17:57:54;9.50;;;6.53;;
2972;SDS011;1496;51.404;7.232;2023-02-13T18:00:23;11.20;;;7.43;;
2972;SDS011;1496;51.404;7.232;2023-02-13T18:02:52;10.80;;;7.27;;
2972;SDS011;1496;51.404;7.232;2023-02-13T18:05:19;11.10;;;7.53;;
2972;SDS011;1496;51.404;7.232;2023-02-13T18:07:46;11.40;;;7.57;;
2972;SDS011;1496;51.404;7.232;2023-02-13T18:10:17;7.87;;;6.07;;
2972;SDS011;1496;51.404;7.232;2023-02-13T18:12:46;12.20;;;8.30;;
2972;SDS011;1496;51.404;7.232;2023-02-13T18:15:15;12.70;;;7.90;;
2972;SDS011;1496;51.404;7.232;2023-02-13T18:17:42;10.77;;;7.10;;
2972;SDS011;1496;51.404;7.232;2023-02-13T18:20:10;13.40;;;7.53;;
2972;SDS011;1496;51.404;7.232;2023-02-13T18:22:39;11.43;;;7.50;;
2972;SDS011;1496;51.404;7.232;2023-02-13T18:25:07;8.87;;;7.17;;
2972;SDS011;1496;51.404;7.232;2023-02-13T18:27:34;16.53;;;8.80;;
2972;SDS011;1496;51.404;7.232;2023-02-13T18:30:00;12.30;;;6.93;;
2972;SDS011;1496;51.404;7.232;2023-02-13T18:32:27;11.60;;;7.23;;
2972;SDS011;1496;51.404;7.232;2023-02-13T18:34:54;16.50;;;7.07;;
2972;SDS011;1496;51.404;7.232;2023-02-13T18:37:20;13.50;;;7.73;;
2972;SDS011;1496;51.404;7.232;2023-02-13T18:39:47;10.93;;;7.37;;
2972;SDS011;1496;51.404;7.232;2023-02-13T18:42:13;17.40;;;7.40;;
2972;SDS011;1496;51.404;7.232;2023-02-13T18:44:40;12.03;;;8.33;;